Airfield :
LOGIN :

Register | Disclaimer

   EN    FR    IT 

 










Legend :    VFR   Marginal VFR   IFR   Intensive IFR   Very Intensive IFR
Visi :
Ceiling :
>= 8 km
>= 3000ft
5 to 8 km
1000 to 3000 ft
1500m to 5 km
500 to 1000 ft
800 to 1500m
200 to 500 ft
< 800m
< 200 ft
Symbols :   Thunderstorms  Fog  Heavy snow  Heavy precipitations  Wind > 20 kt
SIGMETs :     Misc.  Thunderstorms  Icing  Turbulence  Mountain Waves  Volcanic Ashes






- Airport Elevation : 162 ft
- IATA code : BOD


LFBD - Bordeaux / Merignac

CURRENT METAR :
  • 220130Z AUTO 19007KT 9999 FEW007/// SCT210/// ///TCU 15/15 Q1011 TEMPO 3000 SHRA BKN010 FEW020CB BKN025TCU

EXPIRED METARs :
  • 220100Z AUTO 19008KT 9999 -RA FEW019/// SCT030/// BKN040/// ///TCU 16/15 Q1011 TEMPO 3000 SHRA BKN010 FEW020CB BKN025TCU
  • 220030Z AUTO 20006KT 9999 FEW019/// BKN028/// BKN039/// ///CB 16/15 Q1012 TEMPO 3000 SHRA BKN010 BKN020TCU
  • 220000Z AUTO 19006KT 9999 FEW023/// SCT066/// BKN240/// ///CB 16/15 Q1011 TEMPO 3000 SHRA BKN010 BKN020TCU
  • 212330Z AUTO 19006KT 9999 FEW020/// SCT062/// BKN240/// ///CB 16/15 Q1011 TEMPO 3000 SHRA BKN010 BKN020TCU
  • 212300Z AUTO 19007KT 9999 -RA FEW020/// SCT032/// BKN052/// ///TCU 16/15 Q1011 TEMPO 1500 TSRA BKN010 BKN020CB

TAF AMD TAF LFBD
Valid from the 22 at 00:00 until the 23 at 06:00 UTC


220034Z 2200/2306 23010KT 9999 SCT040 TX22/2214Z TN15/2201Z
TEMPO 2200/2219 3000 SHRA BKN010 FEW020CB BKN025TCU
PROB30
TEMPO 2209/2216 1500 TSRA BKN010 BKN020CB
TEMPO 2213/2218 28015G25KT
BECMG 2300/2302 OVC005
TEMPO 2302/2306 3000 BR OVC003
ATIS : +33 5 57 92 81 04



MET'MAP, your aeronautical weather chart ! - Copyright ORBIFLY December 2007 - Disclaimer

ORBIFLY MET'MAP TEAM :

Programming & Development : Alexandra Zaïnal
Concept & original design : Baudouin d'Aumeries
Assistance for programming : Marc-Olivier Méhu
Technical & hardware support : Manuel Goepfert

Contact : metmap@orbifly.com




SOURCES & CREDITS :

   NOAA